Time;durP1;ratioP1;P1;durP2;ratioP2;P2;SDS_P1;SDS_P2;PMS_P1;PMS_P2;Temp;Humidity;BMP_temperature;BMP_pressure;BME280_temperature;BME280_humidity;BME280_pressure;Samples;Min_cycle;Max_cycle;Signal;HPM_P1;HPM_P2
2021/05/13 00:02:20;;;;;;;13.75;4.50;;;26.90;93.70;;;;;;5106628;28;20367;-54
2021/05/13 00:04:48;;;;;;;13.23;5.00;;;26.90;93.60;;;;;;5105399;28;20028;-55
2021/05/13 00:07:15;;;;;;;11.60;4.53;;;26.90;93.60;;;;;;5107183;28;20023;-59
2021/05/13 00:09:43;;;;;;;14.52;4.82;;;26.90;93.60;;;;;;5105774;28;20052;-53
2021/05/13 00:12:27;;;;;;;16.42;4.43;;;26.90;93.60;;;;;;5107058;28;20368;-57
2021/05/13 00:14:54;;;;;;;13.57;4.57;;;26.90;93.60;;;;;;5107342;28;20033;-53
2021/05/13 00:17:21;;;;;;;12.38;4.55;;;26.80;93.60;;;;;;5105910;28;20094;-50
2021/05/13 00:19:47;;;;;;;11.45;4.20;;;26.90;93.60;;;;;;5107336;28;20027;-52
2021/05/13 00:22:14;;;;;;;14.25;3.90;;;26.80;93.60;;;;;;5106968;28;20027;-50
2021/05/13 00:24:42;;;;;;;13.00;3.92;;;26.80;93.60;;;;;;5107334;28;20024;-59
2021/05/13 00:27:12;;;;;;;10.95;4.18;;;26.80;93.60;;;;;;5105047;28;20130;-55
2021/05/13 00:29:39;;;;;;;14.05;4.30;;;26.80;93.60;;;;;;5105650;28;20035;-55
2021/05/13 00:32:05;;;;;;;12.65;4.05;;;26.80;93.60;;;;;;5106761;28;20032;-53
2021/05/13 00:34:32;;;;;;;12.75;4.03;;;26.80;93.60;;;;;;5107198;28;20054;-51
2021/05/13 00:36:59;;;;;;;18.65;4.35;;;26.80;93.50;;;;;;5106520;28;20216;-58
2021/05/13 00:39:27;;;;;;;19.42;4.45;;;26.80;93.60;;;;;;5106909;28;20028;-55
2021/05/13 00:41:58;;;;;;;19.83;6.65;;;26.80;93.60;;;;;;5105354;28;20019;-56
2021/05/13 00:44:26;;;;;;;19.70;6.63;;;26.80;93.60;;;;;;5106761;28;20327;-52
2021/05/13 00:46:52;;;;;;;18.88;5.90;;;26.70;93.60;;;;;;5106399;28;20016;-53
2021/05/13 00:49:22;;;;;;;15.80;4.60;;;26.80;93.60;;;;;;5106537;28;20247;-55
2021/05/13 00:51:52;;;;;;;19.90;4.22;;;26.80;93.60;;;;;;5106378;28;20012;-56
2021/05/13 00:54:22;;;;;;;16.05;4.50;;;26.70;93.50;;;;;;5105353;28;20028;-55
2021/05/13 00:56:49;;;;;;;15.57;5.00;;;26.80;93.50;;;;;;5106298;28;20028;-53
2021/05/13 00:59:18;;;;;;;18.80;4.53;;;26.80;93.40;;;;;;5106336;28;20039;-52
2021/05/13 01:04:22;;;;;;;18.63;4.57;;;26.80;93.40;;;;;;5106242;28;20020;-49
2021/05/13 01:06:51;;;;;;;15.68;6.13;;;26.70;93.40;;;;;;5106089;28;20016;-53
2021/05/13 01:09:27;;;;;;;20.25;6.03;;;26.80;93.30;;;;;;5104627;28;20040;-59
2021/05/13 01:12:00;;;;;;;17.90;4.70;;;26.70;93.30;;;;;;5106078;28;20054;-53
2021/05/13 01:19:40;;;;;;;23.60;4.70;;;26.70;93.40;;;;;;5085092;28;20091;-49
2021/05/13 01:22:06;;;;;;;29.88;5.30;;;26.70;93.40;;;;;;5085518;28;20036;-51
2021/05/13 01:24:33;;;;;;;21.60;4.68;;;26.60;93.30;;;;;;5086007;28;20259;-52
2021/05/13 01:27:02;;;;;;;23.90;4.70;;;26.60;93.30;;;;;;5085583;28;20025;-53
2021/05/13 01:29:28;;;;;;;21.90;5.07;;;26.50;93.10;;;;;;5085789;28;20044;-53
2021/05/13 01:31:56;;;;;;;20.20;5.05;;;26.50;93.30;;;;;;5084959;28;20035;-53
2021/05/13 01:34:23;;;;;;;19.15;4.75;;;26.50;93.50;;;;;;5085782;28;20029;-50
2021/05/13 01:36:50;;;;;;;19.92;4.70;;;26.50;93.60;;;;;;5085210;28;20021;-47
2021/05/13 01:39:19;;;;;;;15.75;4.55;;;26.50;93.70;;;;;;5084539;28;20095;-53
2021/05/13 01:41:48;;;;;;;20.00;4.57;;;26.40;93.70;;;;;;5081934;28;20281;-47
2021/05/13 01:44:18;;;;;;;19.73;4.13;;;26.40;93.80;;;;;;5073327;28;20029;-49
2021/05/13 01:46:45;;;;;;;17.27;4.53;;;26.40;93.90;;;;;;5075244;28;20023;-51
2021/05/13 01:49:21;;;;;;;14.23;5.13;;;26.40;93.80;;;;;;5067470;28;20035;-51
2021/05/13 01:51:49;;;;;;;21.73;5.07;;;26.40;93.90;;;;;;5063635;28;20021;-49
2021/05/13 01:54:18;;;;;;;21.80;5.43;;;26.40;93.90;;;;;;5064964;28;20036;-50
2021/05/13 01:56:47;;;;;;;16.67;4.25;;;26.40;93.90;;;;;;5064658;28;20041;-52
2021/05/13 01:59:17;;;;;;;19.42;4.93;;;26.40;94.20;;;;;;5063492;28;20059;-52
2021/05/13 02:01:43;;;;;;;15.27;4.22;;;26.40;94.00;;;;;;5063461;28;20335;-51
2021/05/13 02:04:10;;;;;;;19.50;4.93;;;26.40;94.10;;;;;;5066371;28;20027;-57
2021/05/13 02:06:37;;;;;;;17.90;4.68;;;26.30;94.10;;;;;;5071899;28;20036;-51
2021/05/13 02:09:06;;;;;;;23.90;5.63;;;26.30;94.20;;;;;;5074680;28;20092;-51
2021/05/13 02:11:33;;;;;;;20.95;4.93;;;26.30;94.30;;;;;;5071504;28;20217;-52
2021/05/13 02:14:02;;;;;;;21.30;5.18;;;26.30;94.50;;;;;;5072813;28;20028;-53
2021/05/13 02:16:28;;;;;;;15.57;4.55;;;26.30;94.50;;;;;;5071281;28;20028;-53
2021/05/13 02:18:57;;;;;;;26.92;4.97;;;26.30;94.40;;;;;;5073600;28;20035;-52
2021/05/13 02:21:32;;;;;;;20.92;6.00;;;26.30;94.40;;;;;;5059994;28;20025;-53
2021/05/13 02:23:58;;;;;;;22.10;5.60;;;26.30;94.40;;;;;;5072651;28;20017;-47
2021/05/13 02:26:25;;;;;;;21.40;5.65;;;26.30;94.50;;;;;;5075765;28;20300;-50
2021/05/13 02:28:55;;;;;;;18.73;5.65;;;26.30;94.60;;;;;;5084975;28;20074;-53
2021/05/13 02:31:22;;;;;;;21.52;6.00;;;26.30;94.60;;;;;;5084478;28;20020;-52
2021/05/13 02:33:50;;;;;;;18.80;5.38;;;26.30;94.70;;;;;;5084692;28;20301;-51
2021/05/13 02:36:17;;;;;;;16.67;5.00;;;26.30;94.60;;;;;;5083890;28;20016;-51
2021/05/13 02:38:44;;;;;;;18.20;4.95;;;26.30;94.40;;;;;;5084287;28;20051;-49
2021/05/13 02:41:11;;;;;;;17.92;5.05;;;26.30;94.40;;;;;;5079598;28;20193;-54
2021/05/13 02:43:38;;;;;;;21.75;7.25;;;26.30;94.40;;;;;;5074491;28;20025;-51
2021/05/13 02:46:05;;;;;;;17.60;7.15;;;26.30;94.40;;;;;;5071271;28;20312;-52
2021/05/13 02:48:32;;;;;;;21.83;6.32;;;26.30;94.50;;;;;;5071877;28;20052;-52
2021/05/13 02:50:58;;;;;;;16.65;4.47;;;26.30;94.80;;;;;;5069924;28;20009;-51
2021/05/13 02:53:25;;;;;;;21.27;4.50;;;26.30;94.50;;;;;;5070172;28;20194;-50
2021/05/13 02:55:53;;;;;;;18.98;4.85;;;26.30;94.50;;;;;;5083414;28;20247;-50
2021/05/13 02:58:29;;;;;;;13.70;4.40;;;26.20;94.40;;;;;;5084305;28;20034;-51
2021/05/13 03:03:33;;;;;;;16.83;4.00;;;26.20;94.40;;;;;;5076049;28;20081;-50
2021/05/13 03:06:00;;;;;;;18.00;4.20;;;26.20;94.40;;;;;;5062745;28;20032;-54
2021/05/13 03:08:26;;;;;;;18.98;3.92;;;26.20;94.40;;;;;;5062039;28;20097;-52
2021/05/13 03:10:57;;;;;;;12.77;3.90;;;26.20;94.40;;;;;;5062874;28;20053;-51
2021/05/13 03:13:26;;;;;;;19.10;4.10;;;26.20;94.50;;;;;;5066073;28;20029;-52
2021/05/13 03:15:53;;;;;;;14.80;3.85;;;26.20;94.50;;;;;;5064996;28;20084;-51
2021/05/13 03:18:26;;;;;;;14.13;4.22;;;26.20;94.50;;;;;;5075859;28;20078;-51
2021/05/13 03:21:00;;;;;;;18.30;3.78;;;26.20;94.40;;;;;;5081977;28;20275;-54
2021/05/13 03:23:37;;;;;;;22.38;3.67;;;26.30;94.30;;;;;;5084107;28;20316;-51
2021/05/13 03:26:04;;;;;;;17.40;3.13;;;26.20;94.30;;;;;;5079208;28;20025;-51
2021/05/13 03:28:31;;;;;;;13.57;3.63;;;26.30;94.30;;;;;;5071915;28;20311;-52
2021/05/13 03:30:57;;;;;;;21.45;3.20;;;26.30;94.40;;;;;;5074475;28;20087;-57
2021/05/13 03:33:24;;;;;;;18.17;3.58;;;26.30;94.40;;;;;;5077980;28;20104;-56
2021/05/13 03:35:51;;;;;;;13.50;3.67;;;26.30;94.30;;;;;;5083238;28;20279;-51
2021/05/13 03:38:18;;;;;;;13.63;3.72;;;26.30;94.30;;;;;;5070953;28;20032;-46
2021/05/13 03:40:44;;;;;;;9.82;3.38;;;26.30;94.30;;;;;;5063794;28;20020;-50
2021/05/13 03:43:11;;;;;;;17.65;3.63;;;26.30;94.30;;;;;;5062913;28;20021;-51
2021/05/13 03:45:38;;;;;;;17.42;3.58;;;26.30;94.20;;;;;;5062629;28;20017;-54
2021/05/13 03:48:09;;;;;;;15.20;3.78;;;26.30;94.20;;;;;;5063558;28;20234;-55
2021/05/13 03:50:38;;;;;;;12.10;3.33;;;26.30;94.20;;;;;;5063216;28;20017;-56
2021/05/13 03:53:06;;;;;;;16.63;3.53;;;26.30;94.20;;;;;;5063489;28;20020;-51
2021/05/13 03:55:33;;;;;;;17.50;3.35;;;26.30;94.20;;;;;;5062653;28;20017;-52
2021/05/13 03:58:02;;;;;;;18.23;3.85;;;26.30;94.30;;;;;;5063068;28;20017;-59
2021/05/13 04:03:16;;;;;;;16.38;3.50;;;26.30;94.30;;;;;;5045444;28;20041;-51
2021/05/13 04:05:43;;;;;;;15.50;3.45;;;26.30;94.30;;;;;;5066547;28;20013;-53
2021/05/13 04:08:10;;;;;;;18.38;3.55;;;26.30;94.30;;;;;;5067187;28;20012;-55
2021/05/13 04:10:37;;;;;;;15.20;3.47;;;26.30;94.30;;;;;;5066623;28;20068;-56
2021/05/13 04:13:06;;;;;;;13.60;3.65;;;26.30;94.30;;;;;;5066684;28;20024;-56
2021/05/13 04:15:33;;;;;;;17.52;3.92;;;26.30;94.30;;;;;;5066531;28;20372;-47
2021/05/13 04:18:00;;;;;;;11.43;3.28;;;26.30;94.30;;;;;;5066469;28;20033;-52
2021/05/13 04:20:28;;;;;;;16.73;3.80;;;26.30;94.30;;;;;;5066336;28;20033;-50
2021/05/13 04:22:54;;;;;;;17.38;3.78;;;26.30;94.30;;;;;;5075197;28;20020;-51
2021/05/13 04:25:21;;;;;;;17.50;3.53;;;26.30;94.30;;;;;;5086667;28;20067;-53
2021/05/13 04:27:48;;;;;;;16.48;3.55;;;26.30;94.30;;;;;;5069016;28;20080;-51
2021/05/13 04:30:15;;;;;;;16.85;3.50;;;26.30;94.40;;;;;;5066852;28;20029;-53
2021/05/13 04:32:42;;;;;;;16.70;3.42;;;26.30;94.30;;;;;;5066297;28;20031;-52
2021/05/13 04:35:11;;;;;;;18.10;3.28;;;26.30;94.30;;;;;;5065001;28;20064;-50
2021/05/13 04:37:38;;;;;;;23.90;3.70;;;26.30;94.40;;;;;;5066128;28;20139;-52
2021/05/13 04:40:05;;;;;;;14.38;3.70;;;26.30;94.40;;;;;;5066697;28;20305;-50
2021/05/13 04:42:32;;;;;;;14.50;3.92;;;26.20;94.30;;;;;;5064573;28;20035;-55
2021/05/13 04:44:59;;;;;;;19.38;3.47;;;26.30;94.40;;;;;;5066614;28;20092;-52
2021/05/13 04:50:11;;;;;;;22.63;3.72;;;26.30;94.30;;;;;;5066579;28;20017;-46
2021/05/13 04:52:39;;;;;;;20.75;3.88;;;26.20;94.20;;;;;;5065948;28;20021;-50
2021/05/13 04:55:07;;;;;;;22.55;5.15;;;26.30;94.20;;;;;;5066437;28;20358;-52
2021/05/13 04:57:36;;;;;;;25.75;4.20;;;26.30;94.20;;;;;;5066087;28;20017;-52
2021/05/13 05:00:08;;;;;;;14.43;3.53;;;26.20;94.10;;;;;;5064489;28;20088;-54
2021/05/13 05:02:35;;;;;;;28.67;4.28;;;26.30;94.10;;;;;;5064436;28;20020;-55
2021/05/13 05:05:02;;;;;;;16.90;3.65;;;26.30;94.10;;;;;;5066565;28;20021;-51
2021/05/13 05:07:29;;;;;;;18.80;3.70;;;26.30;94.30;;;;;;5065890;28;20017;-53
2021/05/13 05:09:56;;;;;;;14.98;3.40;;;26.30;94.10;;;;;;5066001;28;20053;-51
2021/05/13 05:12:23;;;;;;;20.63;4.13;;;26.30;94.40;;;;;;5065922;28;20021;-55
2021/05/13 05:14:50;;;;;;;19.30;4.10;;;26.30;94.10;;;;;;5065353;28;20081;-51
2021/05/13 05:17:16;;;;;;;19.92;3.22;;;26.30;94.10;;;;;;5065749;28;20055;-49
2021/05/13 05:19:43;;;;;;;17.13;3.75;;;26.30;94.20;;;;;;5065988;28;20033;-53
2021/05/13 05:22:10;;;;;;;15.57;3.15;;;26.30;94.20;;;;;;5065441;28;20023;-49
2021/05/13 05:24:37;;;;;;;15.82;3.58;;;26.30;94.20;;;;;;5065948;28;20024;-50
2021/05/13 05:27:04;;;;;;;19.45;3.17;;;26.30;94.20;;;;;;5065479;28;20020;-52
2021/05/13 05:29:31;;;;;;;17.48;3.92;;;26.30;94.30;;;;;;5065618;28;20052;-53
2021/05/13 05:31:58;;;;;;;12.18;2.78;;;26.30;94.20;;;;;;5065273;28;20021;-50
2021/05/13 05:34:25;;;;;;;19.25;3.70;;;26.30;94.30;;;;;;5065680;28;20035;-52
2021/05/13 05:36:52;;;;;;;20.15;2.70;;;26.20;94.40;;;;;;5065116;28;20088;-54
2021/05/13 05:39:18;;;;;;;14.23;3.17;;;26.30;93.90;;;;;;5064860;28;20328;-55
2021/05/13 05:41:45;;;;;;;20.98;2.95;;;26.20;93.80;;;;;;5065455;28;20028;-50
2021/05/13 05:44:13;;;;;;;16.50;3.28;;;26.30;93.80;;;;;;5065255;28;20217;-55
2021/05/13 05:46:40;;;;;;;13.27;2.97;;;26.20;93.70;;;;;;5065266;28;20059;-51
2021/05/13 05:49:07;;;;;;;19.60;3.50;;;26.20;93.80;;;;;;5063648;28;20305;-52
2021/05/13 05:51:33;;;;;;;14.40;3.20;;;26.20;93.80;;;;;;5064894;28;20017;-54
2021/05/13 05:54:00;;;;;;;16.70;3.45;;;26.20;93.90;;;;;;5065455;28;20058;-53
2021/05/13 05:56:27;;;;;;;14.00;2.95;;;26.20;93.80;;;;;;5065272;28;20021;-50
2021/05/13 05:58:53;;;;;;;18.73;3.25;;;26.20;93.80;;;;;;5064701;28;20032;-53
2021/05/13 06:01:22;;;;;;;18.48;3.30;;;26.20;93.80;;;;;;5064775;28;20126;-55
2021/05/13 06:03:49;;;;;;;17.42;3.03;;;26.20;93.80;;;;;;5065412;28;20025;-56
2021/05/13 06:06:16;;;;;;;18.17;3.05;;;26.20;93.90;;;;;;5065105;28;20017;-57
2021/05/13 06:08:44;;;;;;;27.80;3.55;;;26.20;93.80;;;;;;5064736;28;20024;-57
2021/05/13 06:11:12;;;;;;;16.15;3.15;;;26.20;93.80;;;;;;5064463;28;20049;-52
2021/05/13 06:13:38;;;;;;;15.73;3.53;;;26.10;93.80;;;;;;5064589;28;20025;-53
2021/05/13 06:16:05;;;;;;;17.00;2.80;;;26.20;93.90;;;;;;5064513;28;20031;-55
2021/05/13 06:18:32;;;;;;;20.55;3.83;;;26.20;93.80;;;;;;5064366;28;20020;-53
2021/05/13 06:20:58;;;;;;;18.08;3.30;;;26.20;93.70;;;;;;5064334;28;20236;-52
2021/05/13 06:23:25;;;;;;;13.70;3.08;;;26.20;93.70;;;;;;5064410;28;20025;-56
2021/05/13 06:25:52;;;;;;;14.23;2.50;;;26.20;93.50;;;;;;5063960;28;20066;-52
2021/05/13 06:28:18;;;;;;;17.83;3.13;;;26.10;93.30;;;;;;5064274;28;20040;-52
2021/05/13 06:30:46;;;;;;;15.02;2.75;;;26.10;93.20;;;;;;5064188;28;20016;-50
2021/05/13 06:33:12;;;;;;;19.08;2.97;;;26.10;93.10;;;;;;5064417;28;20070;-51
2021/05/13 06:35:39;;;;;;;13.52;2.92;;;26.10;93.20;;;;;;5064406;28;20316;-52
2021/05/13 06:38:06;;;;;;;13.38;2.75;;;26.10;93.00;;;;;;5063974;28;20339;-53
2021/05/13 06:40:32;;;;;;;14.98;3.00;;;26.10;92.90;;;;;;5063980;28;20025;-57
2021/05/13 06:43:00;;;;;;;13.82;2.22;;;26.10;92.80;;;;;;5064085;28;20076;-51
2021/05/13 06:45:27;;;;;;;14.15;2.88;;;26.10;92.50;;;;;;5063814;28;20044;-54
2021/05/13 06:47:53;;;;;;;17.73;2.90;;;26.10;92.50;;;;;;5063876;28;20024;-60
2021/05/13 06:50:21;;;;;;;18.42;2.83;;;26.00;92.40;;;;;;5063997;28;20313;-53
2021/05/13 06:52:47;;;;;;;13.93;2.55;;;26.10;92.40;;;;;;5063783;28;20025;-50
2021/05/13 06:55:14;;;;;;;14.32;2.70;;;26.10;92.40;;;;;;5064239;28;20035;-55
2021/05/13 06:57:41;;;;;;;16.63;3.15;;;26.10;92.20;;;;;;5063888;28;20058;-51
2021/05/13 07:00:07;;;;;;;15.82;3.28;;;26.00;92.30;;;;;;5064070;28;20040;-51
2021/05/13 07:02:35;;;;;;;12.13;2.72;;;26.00;92.30;;;;;;5063878;28;20088;-55
2021/05/13 07:05:02;;;;;;;21.42;2.92;;;26.00;92.20;;;;;;5064211;28;20025;-54
2021/05/13 07:07:29;;;;;;;15.70;2.78;;;26.00;92.10;;;;;;5063605;28;20024;-51
2021/05/13 07:09:56;;;;;;;12.32;2.38;;;26.00;92.10;;;;;;5063834;28;20056;-51
2021/05/13 07:12:22;;;;;;;16.73;2.92;;;26.00;92.10;;;;;;5063790;28;20028;-57
2021/05/13 07:14:49;;;;;;;14.70;2.42;;;26.00;91.90;;;;;;5064051;28;20049;-56
2021/05/13 07:17:15;;;;;;;15.38;2.95;;;26.00;91.90;;;;;;5063657;28;20028;-51
2021/05/13 07:19:42;;;;;;;13.95;2.40;;;26.00;91.80;;;;;;5063997;28;20029;-54
2021/05/13 07:22:09;;;;;;;10.55;2.72;;;26.00;91.90;;;;;;5063530;28;20088;-51
2021/05/13 07:24:35;;;;;;;15.50;2.70;;;26.00;91.80;;;;;;5063916;28;20261;-53
2021/05/13 07:27:08;;;;;;;15.25;2.50;;;26.00;91.80;;;;;;5063722;28;20076;-53
2021/05/13 07:29:35;;;;;;;18.10;2.65;;;26.00;91.70;;;;;;5063767;28;20036;-56
2021/05/13 07:32:02;;;;;;;16.05;2.80;;;26.00;91.60;;;;;;5063581;28;20052;-52
2021/05/13 07:34:29;;;;;;;17.13;2.83;;;26.00;91.60;;;;;;5063872;28;20346;-52
2021/05/13 07:36:56;;;;;;;14.27;2.50;;;25.90;91.70;;;;;;5065117;28;20232;-51
2021/05/13 07:39:23;;;;;;;14.95;2.60;;;25.90;91.70;;;;;;5066208;28;20025;-55
2021/05/13 07:41:49;;;;;;;10.80;2.40;;;25.90;91.80;;;;;;5067596;28;20146;-52
2021/05/13 07:44:16;;;;;;;18.08;2.70;;;25.90;91.80;;;;;;5067544;28;20206;-53
2021/05/13 07:46:43;;;;;;;11.05;2.50;;;25.90;91.80;;;;;;5067304;28;20017;-59
2021/05/13 07:49:13;;;;;;;16.08;2.95;;;25.90;91.90;;;;;;5070317;28;20029;-56
2021/05/13 07:51:44;;;;;;;16.98;2.75;;;25.90;91.90;;;;;;5050197;28;20182;-57
2021/05/13 07:54:11;;;;;;;14.57;2.38;;;25.80;91.90;;;;;;5067531;28;20031;-57
2021/05/13 07:56:38;;;;;;;16.95;2.55;;;25.80;91.90;;;;;;5067175;28;20080;-56
2021/05/13 07:59:06;;;;;;;15.48;2.83;;;25.80;92.00;;;;;;5067102;28;20040;-57
2021/05/13 08:01:32;;;;;;;16.15;3.00;;;25.80;92.00;;;;;;5067088;28;20013;-56
2021/05/13 08:03:59;;;;;;;13.70;2.70;;;25.80;91.90;;;;;;5067267;28;20048;-56
2021/05/13 08:06:25;;;;;;;16.15;2.58;;;25.80;91.80;;;;;;5066901;28;20067;-53
2021/05/13 08:08:52;;;;;;;19.17;3.13;;;25.80;91.80;;;;;;5067074;28;20051;-55
2021/05/13 08:11:18;;;;;;;16.10;2.47;;;25.80;91.70;;;;;;5066691;28;20064;-51
2021/05/13 08:13:45;;;;;;;11.27;2.47;;;25.80;91.70;;;;;;5066903;28;20024;-55
2021/05/13 08:16:12;;;;;;;10.20;2.58;;;25.80;91.70;;;;;;5067085;28;20336;-53
2021/05/13 08:18:38;;;;;;;13.05;2.53;;;25.80;91.70;;;;;;5066755;28;20090;-56
2021/05/13 08:21:05;;;;;;;13.20;2.05;;;25.80;91.70;;;;;;5066523;28;20063;-53
2021/05/13 08:23:32;;;;;;;12.85;2.63;;;25.80;91.60;;;;;;5066708;28;20052;-54
2021/05/13 08:25:58;;;;;;;13.15;2.38;;;25.80;91.50;;;;;;5066636;28;20054;-57
2021/05/13 08:28:25;;;;;;;15.50;2.80;;;25.80;91.50;;;;;;5066525;28;20024;-57
2021/05/13 08:30:52;;;;;;;14.65;3.20;;;25.90;91.50;;;;;;5066526;28;20209;-55
2021/05/13 08:33:18;;;;;;;15.43;2.65;;;25.80;91.50;;;;;;5066446;28;20028;-54
2021/05/13 08:35:45;;;;;;;15.27;2.78;;;25.80;91.60;;;;;;5066316;28;20028;-58
2021/05/13 08:38:13;;;;;;;16.52;3.17;;;25.80;91.60;;;;;;5066441;28;20047;-54
2021/05/13 08:40:40;;;;;;;16.00;2.83;;;25.90;91.70;;;;;;5066487;28;20264;-52
2021/05/13 08:43:22;;;;;;;14.70;2.80;;;25.90;91.70;;;;;;5066270;28;20040;-54
2021/05/13 08:45:50;;;;;;;13.20;2.85;;;25.90;91.60;;;;;;5066266;28;20297;-55
2021/05/13 08:48:17;;;;;;;12.60;2.45;;;25.90;91.70;;;;;;5065578;28;20248;-56
2021/05/13 08:50:44;;;;;;;16.00;2.55;;;25.90;91.60;;;;;;5066069;28;20024;-52
2021/05/13 08:53:11;;;;;;;11.40;2.72;;;25.90;91.60;;;;;;5066098;28;20386;-56
2021/05/13 08:55:38;;;;;;;14.52;2.78;;;25.80;91.60;;;;;;5066101;28;20016;-52
2021/05/13 08:58:07;;;;;;;13.73;3.00;;;25.80;91.60;;;;;;5065858;28;20052;-51
2021/05/13 09:00:34;;;;;;;11.73;2.92;;;25.80;91.60;;;;;;5065765;28;20248;-54
2021/05/13 09:03:00;;;;;;;17.55;2.65;;;25.80;91.60;;;;;;5065872;28;20017;-52
2021/05/13 09:05:27;;;;;;;18.10;3.13;;;25.80;91.60;;;;;;5065679;28;20040;-52
2021/05/13 09:07:55;;;;;;;17.13;3.10;;;25.80;91.60;;;;;;5065717;28;20017;-53
2021/05/13 09:10:23;;;;;;;17.30;3.28;;;25.80;91.60;;;;;;5065533;28;20112;-55
2021/05/13 09:12:52;;;;;;;17.65;3.10;;;25.80;91.70;;;;;;5065516;28;20052;-52
2021/05/13 09:15:24;;;;;;;16.75;3.40;;;25.80;91.70;;;;;;5065550;28;20100;-52
2021/05/13 09:18:00;;;;;;;18.60;2.85;;;25.80;91.70;;;;;;5065547;28;20089;-55
2021/05/13 09:20:39;;;;;;;14.55;3.08;;;25.80;91.70;;;;;;5065516;28;20348;-54
2021/05/13 09:23:29;;;;;;;17.02;3.17;;;25.80;91.70;;;;;;5065394;28;20029;-58
2021/05/13 09:26:11;;;;;;;15.10;3.45;;;25.80;91.70;;;;;;5065449;28;20055;-56
2021/05/13 09:28:39;;;;;;;14.48;3.00;;;25.80;91.80;;;;;;5065319;28;20021;-59
2021/05/13 09:31:06;;;;;;;18.98;3.45;;;25.80;91.70;;;;;;5065453;28;20033;-54
2021/05/13 09:33:38;;;;;;;12.60;3.20;;;25.80;91.80;;;;;;5065415;28;20020;-53
2021/05/13 09:36:21;;;;;;;;;;;25.80;91.80;;;;;;5065594;28;20044;-54
2021/05/13 09:38:48;;;;;;;14.90;3.63;;;25.80;91.80;;;;;;5065387;28;19963;-57
2021/05/13 09:41:34;;;;;;;13.38;3.25;;;25.80;91.90;;;;;;5065030;28;19946;-54
2021/05/13 09:44:01;;;;;;;17.17;2.60;;;25.80;91.90;;;;;;5065242;28;20281;-52
2021/05/13 09:46:38;;;;;;;15.90;3.63;;;25.80;91.90;;;;;;5064935;28;20029;-52
2021/05/13 09:49:05;;;;;;;17.42;3.63;;;25.80;92.00;;;;;;5065147;28;20020;-55
2021/05/13 09:51:41;;;;;;;14.38;3.05;;;25.80;92.00;;;;;;5064768;28;20328;-53
2021/05/13 09:54:10;;;;;;;17.42;3.55;;;25.80;92.00;;;;;;5065176;28;20019;-51
2021/05/13 09:56:41;;;;;;;16.88;3.45;;;25.80;92.10;;;;;;5064815;28;20025;-51
2021/05/13 09:59:27;;;;;;;17.95;3.28;;;25.80;92.10;;;;;;5064635;28;20016;-57
2021/05/13 10:01:58;;;;;;;17.08;3.22;;;25.80;92.10;;;;;;5064318;28;20032;-55
2021/05/13 10:04:26;;;;;;;18.25;3.10;;;25.80;92.10;;;;;;5064893;28;20021;-55
2021/05/13 10:06:54;;;;;;;21.38;3.45;;;25.80;92.10;;;;;;5064618;28;20235;-53
2021/05/13 10:09:21;;;;;;;18.73;3.85;;;25.80;92.10;;;;;;5064688;28;20115;-53
2021/05/13 10:12:01;;;;;;;16.83;3.80;;;25.80;92.10;;;;;;5064396;28;20089;-53
2021/05/13 10:14:28;;;;;;;15.05;2.83;;;25.80;92.30;;;;;;5064793;28;20029;-57
2021/05/13 10:17:03;;;;;;;23.27;4.28;;;25.80;92.10;;;;;;5064376;28;20032;-56
2021/05/13 10:19:42;;;;;;;14.30;3.30;;;25.80;92.10;;;;;;5064698;28;20033;-53
2021/05/13 10:22:13;;;;;;;16.65;3.65;;;25.80;92.10;;;;;;5064242;28;20013;-57
2021/05/13 10:24:40;;;;;;;13.45;3.20;;;25.80;92.10;;;;;;5064712;28;20174;-54
2021/05/13 10:27:21;;;;;;;19.45;3.85;;;25.80;92.10;;;;;;5064342;28;20217;-55
2021/05/13 10:30:00;;;;;;;13.75;3.55;;;25.80;92.10;;;;;;5064581;28;20039;-52
2021/05/13 10:32:35;;;;;;;18.75;4.07;;;25.80;92.10;;;;;;5064191;28;20044;-57
2021/05/13 10:35:09;;;;;;;20.77;4.05;;;25.80;92.10;;;;;;5064765;28;20036;-52
2021/05/13 10:37:38;;;;;;;22.83;4.70;;;25.80;92.00;;;;;;5064266;28;20200;-54
2021/05/13 10:43:03;;;;;;;18.40;3.97;;;25.80;92.10;;;;;;5064201;28;20013;-51
2021/05/13 10:45:30;;;;;;;18.23;3.75;;;25.80;92.10;;;;;;5064001;28;20028;-59
2021/05/13 10:48:21;;;;;;;17.95;3.65;;;25.80;92.10;;;;;;5063943;28;20017;-56
2021/05/13 10:51:00;;;;;;;22.00;4.45;;;25.80;92.20;;;;;;5063968;28;20021;-54
2021/05/13 10:53:37;;;;;;;13.82;4.00;;;25.80;92.10;;;;;;5064114;28;20032;-53
2021/05/13 10:56:23;;;;;;;33.22;5.28;;;25.80;92.10;;;;;;5064196;28;20052;-55
2021/05/13 10:59:08;;;;;;;17.67;4.57;;;25.80;92.40;;;;;;5064974;28;20214;-51
2021/05/13 11:01:52;;;;;;;20.40;4.95;;;25.80;92.20;;;;;;5063816;28;20084;-55
2021/05/13 11:04:22;;;;;;;17.58;3.70;;;25.80;92.10;;;;;;5063958;28;20021;-55
2021/05/13 11:06:52;;;;;;;17.80;4.18;;;25.90;92.10;;;;;;5064032;28;20336;-55
2021/05/13 11:09:45;;;;;;;23.88;4.57;;;25.90;92.00;;;;;;5063632;28;20045;-57
2021/05/13 11:12:16;;;;;;;18.30;4.18;;;25.90;91.90;;;;;;5064165;28;20335;-51
2021/05/13 11:15:13;;;;;;;21.23;4.47;;;26.00;91.90;;;;;;5063656;28;20032;-51
2021/05/13 11:17:51;;;;;;;22.45;4.57;;;26.10;91.80;;;;;;5063636;28;20033;-57
2021/05/13 11:20:32;;;;;;;23.23;4.22;;;26.10;91.60;;;;;;5063624;28;20045;-54
2021/05/13 11:23:21;;;;;;;23.77;4.82;;;26.20;91.50;;;;;;5063633;28;20017;-53
2021/05/13 11:25:52;;;;;;;17.08;4.85;;;26.30;91.40;;;;;;5063714;28;20025;-55
2021/05/13 11:28:28;;;;;;;28.00;4.90;;;26.30;91.30;;;;;;5063662;28;20305;-51
2021/05/13 11:31:06;;;;;;;37.05;6.35;;;26.40;91.30;;;;;;5063727;28;20033;-52
2021/05/13 11:33:43;;;;;;;29.90;5.13;;;26.50;91.30;;;;;;5063588;28;20020;-51
2021/05/13 11:36:13;;;;;;;27.90;5.32;;;26.50;91.30;;;;;;5063303;28;20036;-52
2021/05/13 11:38:44;;;;;;;26.95;5.90;;;26.70;91.20;;;;;;5063655;28;20089;-54
2021/05/13 11:41:11;;;;;;;24.38;5.35;;;26.80;91.00;;;;;;5063538;28;20035;-53
2021/05/13 11:43:39;;;;;;;19.40;5.00;;;27.00;90.80;;;;;;5063426;28;20213;-58
2021/05/13 11:46:08;;;;;;;23.48;5.13;;;27.10;90.70;;;;;;5063497;28;20021;-54
2021/05/13 11:48:39;;;;;;;21.45;4.82;;;27.20;90.50;;;;;;5063389;28;20021;-58
2021/05/13 11:51:12;;;;;;;15.75;4.57;;;27.20;90.50;;;;;;5063684;28;20063;-65
2021/05/13 11:53:46;;;;;;;26.83;12.13;;;27.20;90.60;;;;;;5063378;28;20024;-56
2021/05/13 11:56:15;;;;;;;21.02;5.07;;;27.20;90.80;;;;;;5063482;28;20043;-56
2021/05/13 11:58:48;;;;;;;17.45;5.03;;;27.20;90.80;;;;;;5063226;28;20025;-60
2021/05/13 12:01:30;;;;;;;18.45;5.32;;;27.10;90.90;;;;;;5063189;28;20033;-57
2021/05/13 12:04:07;;;;;;;17.42;4.63;;;27.10;91.10;;;;;;5063605;28;20119;-59
2021/05/13 12:06:47;;;;;;;14.65;4.40;;;27.00;91.20;;;;;;5063559;28;20541;-58
2021/05/13 12:09:15;;;;;;;23.30;4.40;;;27.00;91.30;;;;;;5061959;28;20053;-55
2021/05/13 12:11:42;;;;;;;20.45;4.70;;;27.00;91.40;;;;;;5063449;28;20087;-57
2021/05/13 12:14:23;;;;;;;14.45;4.75;;;27.00;91.40;;;;;;5063230;28;20032;-60
2021/05/13 12:16:58;;;;;;;20.85;4.13;;;27.00;91.40;;;;;;5063473;28;20092;-54
2021/05/13 12:19:32;;;;;;;15.50;4.53;;;26.90;91.40;;;;;;5063316;28;20048;-59
2021/05/13 12:22:11;;;;;;;15.80;4.40;;;27.00;91.50;;;;;;5063903;28;20035;-58
2021/05/13 12:24:42;;;;;;;21.13;4.45;;;27.00;91.50;;;;;;5065706;28;20017;-51
2021/05/13 12:27:15;;;;;;;16.50;4.00;;;26.90;91.50;;;;;;5067181;28;20047;-54
2021/05/13 12:29:46;;;;;;;18.70;3.70;;;26.90;91.50;;;;;;5066719;28;20025;-52
2021/05/13 12:32:28;;;;;;;15.55;4.25;;;27.00;91.50;;;;;;5066953;28;20036;-53
2021/05/13 12:34:55;;;;;;;18.00;4.28;;;26.90;91.40;;;;;;5066234;28;20324;-53
2021/05/13 12:37:23;;;;;;;21.15;4.13;;;27.00;91.50;;;;;;5066827;28;20036;-54
2021/05/13 12:39:51;;;;;;;18.52;3.88;;;26.90;91.50;;;;;;5066358;28;20036;-54
2021/05/13 12:42:28;;;;;;;17.33;4.57;;;26.90;91.50;;;;;;5066255;28;20092;-57
2021/05/13 12:45:22;;;;;;;19.33;4.28;;;26.90;91.50;;;;;;5066190;28;20316;-50
2021/05/13 12:48:02;;;;;;;15.07;3.88;;;27.00;91.60;;;;;;5066323;28;20017;-60
2021/05/13 12:50:31;;;;;;;20.85;4.70;;;27.00;91.50;;;;;;5066099;28;20029;-50
2021/05/13 12:53:15;;;;;;;14.10;3.80;;;27.00;91.50;;;;;;5066070;28;20027;-52
2021/05/13 12:55:43;;;;;;;16.25;4.18;;;27.00;91.50;;;;;;5066170;28;20052;-52
2021/05/13 12:58:13;;;;;;;12.77;3.88;;;27.00;91.60;;;;;;5065975;28;20036;-52
2021/05/13 13:00:41;;;;;;;16.48;4.40;;;27.00;91.70;;;;;;5065920;28;20051;-51
2021/05/13 13:03:15;;;;;;;17.27;3.92;;;27.00;91.70;;;;;;5065810;28;20017;-54
2021/05/13 13:05:44;;;;;;;15.98;4.15;;;27.00;91.70;;;;;;5065921;28;20043;-52
2021/05/13 13:08:11;;;;;;;13.75;3.70;;;27.00;91.80;;;;;;5065922;28;20013;-52
2021/05/13 13:10:45;;;;;;;15.63;4.43;;;27.00;91.80;;;;;;5065680;28;20083;-53